Time;durP1;ratioP1;P1;durP2;ratioP2;P2;SDS_P1;SDS_P2;PMS_P1;PMS_P2;Temp;Humidity;BMP_temperature;BMP_pressure;BME280_temperature;BME280_humidity;BME280_pressure;Samples;Min_cycle;Max_cycle;Signal;HPM_P1;HPM_P2
2022/11/16 00:01:08;;;;;;;3.53;3.00;;;13.20;99.90;;;;;;5054749;28;20204;-83
2022/11/16 00:03:34;;;;;;;4.00;3.13;;;13.10;99.90;;;;;;5052367;28;20257;-83
2022/11/16 00:06:03;;;;;;;3.90;2.75;;;13.10;99.90;;;;;;5064632;28;20178;-81
2022/11/16 00:08:31;;;;;;;4.15;2.72;;;13.20;99.90;;;;;;5041085;28;20194;-81
2022/11/16 00:11:17;;;;;;;3.08;2.47;;;13.20;99.90;;;;;;5041953;28;20264;-81
2022/11/16 00:13:43;;;;;;;3.30;2.53;;;13.20;99.90;;;;;;5047468;28;20193;-84
2022/11/16 00:16:15;;;;;;;2.90;2.60;;;13.20;99.90;;;;;;5049682;28;20169;-84
2022/11/16 00:18:43;;;;;;;3.30;2.85;;;13.10;99.90;;;;;;5053125;28;20185;-81
2022/11/16 00:21:11;;;;;;;4.45;3.40;;;13.20;99.90;;;;;;5052695;28;20421;-80
2022/11/16 00:23:38;;;;;;;3.13;2.83;;;13.10;99.90;;;;;;5042821;28;20177;-82
2022/11/16 00:26:05;;;;;;;3.25;2.85;;;13.20;99.90;;;;;;5044956;28;20185;-85
2022/11/16 00:28:30;;;;;;;3.15;2.85;;;13.20;99.90;;;;;;5049466;28;20204;-83
2022/11/16 00:31:06;;;;;;;3.55;2.70;;;13.20;99.90;;;;;;5053124;28;20189;-85
2022/11/16 00:33:35;;;;;;;4.18;3.00;;;13.20;99.90;;;;;;5055616;28;20247;-84
2022/11/16 00:36:04;;;;;;;3.35;2.95;;;13.10;99.90;;;;;;5049097;28;20214;-83
2022/11/16 00:38:30;;;;;;;3.42;2.72;;;13.20;99.90;;;;;;5043444;28;20207;-83
2022/11/16 00:40:58;;;;;;;4.03;3.00;;;13.20;99.90;;;;;;5039164;28;20265;-86
2022/11/16 00:43:26;;;;;;;3.50;2.80;;;13.20;99.90;;;;;;5043542;28;20295;-86
2022/11/16 00:45:52;;;;;;;3.58;3.20;;;13.20;99.90;;;;;;5051842;28;20177;-85
2022/11/16 00:48:18;;;;;;;3.30;3.00;;;13.20;99.90;;;;;;5042997;28;20183;-87
2022/11/16 00:50:46;;;;;;;3.53;2.97;;;13.20;99.90;;;;;;5052229;28;20174;-84
2022/11/16 00:53:14;;;;;;;4.00;3.00;;;13.20;99.90;;;;;;5043570;28;20281;-86
2022/11/16 00:55:46;;;;;;;4.25;2.92;;;13.20;99.90;;;;;;5050867;28;20222;-77
2022/11/16 00:58:17;;;;;;;3.50;2.80;;;13.20;99.90;;;;;;5061889;28;20201;-86
2022/11/16 01:00:43;;;;;;;3.15;2.75;;;13.20;99.90;;;;;;5041991;28;20231;-87
2022/11/16 01:03:11;;;;;;;2.90;2.63;;;13.20;99.90;;;;;;5047504;28;20217;-87
2022/11/16 01:05:37;;;;;;;3.30;2.85;;;13.20;99.90;;;;;;5050387;28;20178;-88
2022/11/16 01:08:08;;;;;;;5.20;3.10;;;13.10;99.90;;;;;;5055827;28;20193;-87
2022/11/16 01:10:34;;;;;;;4.47;3.10;;;13.20;99.90;;;;;;5051373;28;20201;-86
2022/11/16 01:13:01;;;;;;;3.95;3.42;;;13.20;99.90;;;;;;5046603;28;20212;-87
2022/11/16 01:15:27;;;;;;;3.97;3.08;;;13.20;99.90;;;;;;5037586;28;20445;-87
2022/11/16 01:17:54;;;;;;;3.78;3.05;;;13.20;99.90;;;;;;5045967;28;20197;-87
2022/11/16 01:20:23;;;;;;;3.30;3.00;;;13.20;99.90;;;;;;5038579;28;20182;-86
2022/11/16 01:22:49;;;;;;;4.15;3.35;;;13.20;99.90;;;;;;5048798;28;20239;-87
2022/11/16 01:25:20;;;;;;;3.97;3.40;;;13.20;99.90;;;;;;5045354;28;20193;-88
2022/11/16 01:27:46;;;;;;;3.78;2.88;;;13.20;99.90;;;;;;5050876;28;20273;-84
2022/11/16 01:30:20;;;;;;;3.22;2.88;;;13.20;99.90;;;;;;5044189;28;20201;-86
2022/11/16 01:32:45;;;;;;;3.63;3.03;;;13.20;99.90;;;;;;5035479;28;20198;-86
2022/11/16 01:35:16;;;;;;;3.05;2.78;;;13.20;99.90;;;;;;5047472;28;20211;-87
2022/11/16 01:37:42;;;;;;;2.90;2.55;;;13.20;99.90;;;;;;5048662;28;20224;-87
2022/11/16 01:40:14;;;;;;;3.53;2.95;;;13.20;99.90;;;;;;5037746;28;20185;-85
2022/11/16 01:42:42;;;;;;;4.30;2.80;;;13.20;99.90;;;;;;5047077;28;20173;-85
2022/11/16 01:45:32;;;;;;;3.00;2.70;;;13.10;99.90;;;;;;5046513;28;20182;-84
2022/11/16 01:48:00;;;;;;;3.10;2.80;;;13.20;99.90;;;;;;5049093;28;20237;-83
2022/11/16 01:50:29;;;;;;;3.70;2.85;;;13.20;99.90;;;;;;5045814;28;20177;-86
2022/11/16 01:53:01;;;;;;;3.53;2.67;;;13.20;99.90;;;;;;5045509;28;20213;-81
2022/11/16 01:55:32;;;;;;;3.45;3.10;;;13.10;99.90;;;;;;5055912;28;20313;-83
2022/11/16 01:58:01;;;;;;;3.33;3.03;;;13.10;99.90;;;;;;5062435;28;20181;-85
2022/11/16 02:00:27;;;;;;;3.60;3.00;;;13.10;99.90;;;;;;5051395;28;20304;-87
2022/11/16 02:02:53;;;;;;;3.42;2.65;;;13.10;99.90;;;;;;5041942;28;20178;-82
2022/11/16 02:05:29;;;;;;;3.03;2.63;;;13.10;99.90;;;;;;5037993;28;20216;-87
2022/11/16 02:11:17;;;;;;;2.97;2.10;;;13.00;99.90;;;;;;5042707;28;20181;-82
2022/11/16 02:13:58;;;;;;;2.13;1.90;;;13.00;99.90;;;;;;5051222;28;20201;-79
2022/11/16 02:16:35;;;;;;;2.33;2.13;;;13.00;99.90;;;;;;5048731;28;20196;-82
2022/11/16 02:19:46;;;;;;;1.80;1.70;;;13.00;99.90;;;;;;5053383;28;20173;-82
2022/11/16 02:22:45;;;;;;;2.15;1.50;;;13.00;99.90;;;;;;5013859;28;20204;-85
2022/11/16 02:25:29;;;;;;;3.17;1.42;;;13.00;99.90;;;;;;5058829;28;20178;-82
2022/11/16 02:28:12;;;;;;;1.35;1.25;;;13.00;99.90;;;;;;5042412;28;20199;-84
2022/11/16 02:30:45;;;;;;;1.48;1.38;;;13.00;99.90;;;;;;5053480;28;20244;-83
2022/11/16 02:33:14;;;;;;;2.40;1.33;;;13.00;99.90;;;;;;5033940;28;20211;-82
2022/11/16 02:35:55;;;;;;;2.13;1.65;;;13.10;99.90;;;;;;5040932;28;20196;-81
2022/11/16 02:38:31;;;;;;;2.20;1.60;;;13.10;99.90;;;;;;5038847;28;20209;-83
2022/11/16 02:41:06;;;;;;;1.73;1.60;;;13.10;99.90;;;;;;5050129;28;20233;-81
2022/11/16 02:43:39;;;;;;;2.00;1.77;;;13.10;99.90;;;;;;5051485;28;20244;-82
2022/11/16 02:46:12;;;;;;;1.95;1.67;;;13.10;99.90;;;;;;5054601;28;20177;-83
2022/11/16 02:48:45;;;;;;;2.85;1.63;;;13.10;99.90;;;;;;5040159;28;20186;-81
2022/11/16 02:51:17;;;;;;;1.60;1.45;;;13.10;99.90;;;;;;5056936;28;20178;-83
2022/11/16 02:54:13;;;;;;;2.17;1.92;;;13.10;99.90;;;;;;5050070;28;20301;-82
2022/11/16 02:57:03;;;;;;;2.08;1.65;;;13.20;99.90;;;;;;5053155;28;20233;-82
2022/11/16 02:59:36;;;;;;;2.10;1.60;;;13.10;99.90;;;;;;5045619;28;20190;-79
2022/11/16 03:02:16;;;;;;;1.70;1.60;;;13.10;99.90;;;;;;5056037;28;20173;-81
2022/11/16 03:04:47;;;;;;;1.83;1.50;;;13.10;99.90;;;;;;5069627;28;20173;-80
2022/11/16 03:07:16;;;;;;;1.90;1.70;;;13.10;99.90;;;;;;5062030;28;20328;-83
2022/11/16 03:09:44;;;;;;;2.55;1.60;;;13.10;99.90;;;;;;5044238;28;20445;-79
2022/11/16 03:12:15;;;;;;;1.98;1.70;;;13.20;99.90;;;;;;5046987;28;20276;-79
2022/11/16 03:14:46;;;;;;;1.70;1.60;;;13.20;99.90;;;;;;5046762;28;20190;-82
2022/11/16 03:17:23;;;;;;;1.70;1.50;;;13.10;99.90;;;;;;5043005;28;20185;-84
2022/11/16 03:20:22;;;;;;;2.13;1.60;;;13.10;99.90;;;;;;5048880;28;20248;-81
2022/11/16 03:23:02;;;;;;;2.45;1.63;;;13.20;99.90;;;;;;5029133;28;20205;-84
2022/11/16 03:25:41;;;;;;;2.20;1.58;;;13.10;99.90;;;;;;5050672;28;20264;-82
2022/11/16 03:28:28;;;;;;;1.88;1.67;;;13.10;99.90;;;;;;5046280;28;20193;-81
2022/11/16 03:31:10;;;;;;;2.78;2.10;;;13.10;99.90;;;;;;5049128;28;20216;-80
2022/11/16 03:33:52;;;;;;;2.30;1.80;;;13.20;99.90;;;;;;5042408;28;20348;-82
2022/11/16 03:36:33;;;;;;;2.17;1.70;;;13.20;99.90;;;;;;5042636;28;20269;-82
2022/11/16 03:39:05;;;;;;;2.25;1.60;;;13.10;99.90;;;;;;5048201;28;20197;-81
2022/11/16 03:41:34;;;;;;;2.28;1.65;;;13.10;99.90;;;;;;5043773;28;20174;-84
2022/11/16 03:44:03;;;;;;;1.77;1.50;;;13.10;99.90;;;;;;5041905;28;20181;-82
2022/11/16 03:46:32;;;;;;;1.80;1.55;;;13.10;99.90;;;;;;5057787;28;20182;-74
2022/11/16 03:48:59;;;;;;;1.58;1.45;;;13.10;99.90;;;;;;5065906;28;20162;-83
2022/11/16 03:51:25;;;;;;;1.85;1.67;;;13.10;99.90;;;;;;5049728;28;20189;-82
2022/11/16 03:53:53;;;;;;;1.67;1.55;;;13.10;99.90;;;;;;5054695;28;20219;-83
2022/11/16 03:56:21;;;;;;;1.73;1.50;;;13.10;99.90;;;;;;5049913;28;20256;-82
2022/11/16 03:58:49;;;;;;;1.75;1.52;;;13.20;99.90;;;;;;5052803;28;20181;-81
2022/11/16 04:01:19;;;;;;;1.73;1.63;;;13.10;99.90;;;;;;5042017;28;20204;-81
2022/11/16 04:03:47;;;;;;;2.00;1.55;;;13.10;99.90;;;;;;5056409;28;20177;-83
2022/11/16 04:25:40;;;;;;;1.88;1.58;;;13.20;99.90;;;;;;5045503;28;20211;-79
2022/11/16 04:28:12;;;;;;;1.65;1.42;;;13.10;99.90;;;;;;5045994;28;20519;-81
2022/11/16 04:39:03;;;;;;;3.30;1.95;;;13.10;99.90;;;;;;5049679;28;20224;-84
2022/11/16 04:44:19;;;;;;;1.90;1.70;;;13.10;99.90;;;;;;5044640;28;20252;-81
2022/11/16 04:49:30;;;;;;;2.28;1.70;;;13.10;99.90;;;;;;5052600;28;20192;-80
2022/11/16 04:51:55;;;;;;;2.25;1.80;;;13.10;99.90;;;;;;5045105;28;20170;-81
2022/11/16 04:54:21;;;;;;;2.38;1.73;;;13.10;99.90;;;;;;5048193;28;20201;-80
2022/11/16 04:56:46;;;;;;;1.75;1.65;;;13.10;99.90;;;;;;5043629;28;20170;-81
2022/11/16 04:59:15;;;;;;;2.05;1.67;;;13.10;99.90;;;;;;5055439;28;20193;-82
2022/11/16 05:04:29;;;;;;;2.53;1.70;;;13.10;99.90;;;;;;5043850;28;20181;-79
2022/11/16 05:06:57;;;;;;;1.45;1.30;;;13.10;99.90;;;;;;5045658;28;20185;-81
2022/11/16 05:09:23;;;;;;;1.77;1.20;;;13.10;99.90;;;;;;5043773;28;20194;-82
2022/11/16 05:11:51;;;;;;;1.77;1.30;;;13.00;99.90;;;;;;5041213;28;20204;-82
2022/11/16 05:14:17;;;;;;;1.40;1.30;;;13.00;99.90;;;;;;5044687;28;20182;-79
2022/11/16 05:16:45;;;;;;;1.63;1.50;;;13.00;99.90;;;;;;5054580;28;20212;-81
2022/11/16 05:21:54;;;;;;;1.42;1.33;;;13.00;99.90;;;;;;5040357;28;20208;-81
2022/11/16 05:24:32;;;;;;;4.20;1.25;;;13.10;99.90;;;;;;5052613;28;20178;-81
2022/11/16 05:26:58;;;;;;;1.10;0.90;;;13.10;99.90;;;;;;5045141;28;20202;-80
2022/11/16 05:29:26;;;;;;;1.20;0.90;;;13.10;99.90;;;;;;5063071;28;20180;-82
2022/11/16 05:31:54;;;;;;;1.77;0.90;;;13.10;99.90;;;;;;5065071;28;20191;-79
2022/11/16 05:34:22;;;;;;;1.30;0.93;;;13.10;99.90;;;;;;5054865;28;20219;-81
2022/11/16 05:36:48;;;;;;;1.35;0.90;;;13.10;99.90;;;;;;5048107;28;20283;-83
2022/11/16 05:39:16;;;;;;;1.23;0.88;;;13.00;99.90;;;;;;5048818;28;20198;-84
2022/11/16 05:41:44;;;;;;;1.15;1.00;;;13.00;99.90;;;;;;5053932;28;20290;-80
2022/11/16 05:44:10;;;;;;;1.20;0.80;;;13.10;99.90;;;;;;5060087;28;20184;-73
2022/11/16 05:46:36;;;;;;;2.00;1.00;;;13.00;99.90;;;;;;5069467;28;20174;-73
2022/11/16 05:49:10;;;;;;;1.20;0.90;;;13.00;99.90;;;;;;5072448;28;20216;-82
2022/11/16 05:51:40;;;;;;;1.25;0.90;;;13.00;99.90;;;;;;5073382;28;20186;-81
2022/11/16 05:54:06;;;;;;;1.90;1.40;;;13.00;99.90;;;;;;5036200;28;20205;-81
2022/11/16 05:56:36;;;;;;;3.05;2.00;;;12.90;99.90;;;;;;5045178;28;20272;-81
2022/11/16 05:59:02;;;;;;;2.13;1.40;;;12.90;99.90;;;;;;5051146;28;20211;-81
2022/11/16 06:01:30;;;;;;;2.20;0.90;;;12.80;99.90;;;;;;5050460;28;20190;-86
2022/11/16 06:04:03;;;;;;;1.27;0.90;;;12.80;99.90;;;;;;5040131;28;20243;-82
2022/11/16 06:06:31;;;;;;;2.00;1.83;;;12.80;99.90;;;;;;5046773;28;20212;-84
2022/11/16 06:08:57;;;;;;;1.52;1.35;;;12.70;99.90;;;;;;5037240;28;20185;-82
2022/11/16 06:11:23;;;;;;;2.80;1.50;;;12.70;99.90;;;;;;5041144;28;20178;-85
2022/11/16 06:13:49;;;;;;;1.33;1.10;;;12.60;99.90;;;;;;5052285;28;20287;-84
2022/11/16 06:16:15;;;;;;;1.35;0.88;;;12.60;99.90;;;;;;5035377;28;20234;-84
2022/11/16 06:18:43;;;;;;;0.95;0.70;;;12.50;99.90;;;;;;5051020;28;20197;-84
2022/11/16 06:21:10;;;;;;;1.25;0.80;;;12.50;99.90;;;;;;5052564;28;20285;-83
2022/11/16 06:23:38;;;;;;;2.63;0.85;;;12.40;99.90;;;;;;5040017;28;20203;-82
2022/11/16 06:26:07;;;;;;;1.20;0.63;;;12.50;99.90;;;;;;5045911;28;20193;-80
2022/11/16 06:28:36;;;;;;;1.13;0.90;;;12.40;99.90;;;;;;5051746;28;20177;-85
2022/11/16 06:31:05;;;;;;;2.13;1.00;;;12.40;99.90;;;;;;5061180;28;20178;-81
2022/11/16 06:33:30;;;;;;;1.27;0.70;;;12.40;99.90;;;;;;5056628;28;20205;-81
2022/11/16 06:35:58;;;;;;;1.05;0.88;;;12.40;99.90;;;;;;5039008;28;20166;-80
2022/11/16 06:38:24;;;;;;;1.17;0.80;;;12.30;99.90;;;;;;5047589;28;20196;-82
2022/11/16 06:40:56;;;;;;;1.90;0.68;;;12.40;99.90;;;;;;5052281;28;20194;-78
2022/11/16 06:43:24;;;;;;;3.42;0.90;;;12.30;99.90;;;;;;5043123;28;20182;-80
2022/11/16 06:45:54;;;;;;;2.30;0.90;;;12.30;99.90;;;;;;5060366;28;20193;-76
2022/11/16 06:48:21;;;;;;;1.48;1.10;;;12.20;99.90;;;;;;5053054;28;20196;-81
2022/11/16 06:50:50;;;;;;;2.10;0.90;;;12.20;99.90;;;;;;5038438;28;20173;-79
2022/11/16 06:53:17;;;;;;;2.00;0.80;;;12.10;99.90;;;;;;5056858;28;20212;-80
2022/11/16 06:55:42;;;;;;;2.30;0.88;;;12.10;99.90;;;;;;5054576;28;20201;-79
2022/11/16 06:58:11;;;;;;;2.53;0.85;;;12.10;99.90;;;;;;5038836;28;20174;-83
2022/11/16 07:00:36;;;;;;;1.85;1.00;;;12.10;99.90;;;;;;5055057;28;20197;-80
2022/11/16 07:03:02;;;;;;;2.58;0.80;;;12.00;99.90;;;;;;5044466;28;20217;-81
2022/11/16 07:05:32;;;;;;;2.50;1.00;;;12.00;99.90;;;;;;5040574;28;20269;-79
2022/11/16 07:07:59;;;;;;;1.52;0.95;;;12.00;99.90;;;;;;5045820;28;20174;-80
2022/11/16 07:10:25;;;;;;;2.95;0.82;;;11.90;99.90;;;;;;5051356;28;20182;-79
2022/11/16 07:12:56;;;;;;;3.28;1.17;;;11.90;99.90;;;;;;5054172;28;20209;-79
2022/11/16 07:15:21;;;;;;;2.33;0.90;;;11.90;99.90;;;;;;5056833;28;20205;-78
2022/11/16 07:17:49;;;;;;;1.77;0.73;;;11.90;99.90;;;;;;5053631;28;20247;-79
2022/11/16 07:20:15;;;;;;;1.75;0.70;;;11.80;99.90;;;;;;5055198;28;20173;-78
2022/11/16 07:22:41;;;;;;;1.98;1.00;;;11.80;99.90;;;;;;5057173;28;20215;-79
2022/11/16 07:25:07;;;;;;;2.42;0.90;;;11.80;99.90;;;;;;5047001;28;20281;-79
2022/11/16 07:27:35;;;;;;;4.20;0.98;;;11.80;99.90;;;;;;5038572;28;20181;-79
2022/11/16 07:30:01;;;;;;;1.83;0.77;;;11.80;99.90;;;;;;5038247;28;20212;-79
2022/11/16 07:32:30;;;;;;;2.60;1.10;;;11.70;99.90;;;;;;5047534;28;20181;-77
2022/11/16 07:34:58;;;;;;;3.17;1.00;;;11.70;99.90;;;;;;5079025;28;20173;-78
2022/11/16 07:37:26;;;;;;;3.28;1.38;;;11.70;99.90;;;;;;5046019;28;20193;-80
2022/11/16 07:39:51;;;;;;;6.70;1.10;;;11.60;99.90;;;;;;5050590;28;20267;-79
2022/11/16 07:42:17;;;;;;;1.60;0.80;;;11.70;99.90;;;;;;5060556;28;20184;-77
2022/11/16 07:44:43;;;;;;;1.75;0.70;;;11.60;99.90;;;;;;5050273;28;20232;-78
2022/11/16 07:47:08;;;;;;;1.75;0.80;;;11.60;99.90;;;;;;5038570;28;20177;-80
2022/11/16 07:49:34;;;;;;;3.53;1.20;;;11.60;99.90;;;;;;5053743;28;20198;-79
2022/11/16 07:52:02;;;;;;;3.67;1.00;;;11.60;99.90;;;;;;5055081;28;20197;-78
2022/11/16 07:54:30;;;;;;;1.88;0.90;;;11.60;99.90;;;;;;5068163;28;20298;-79
2022/11/16 07:56:57;;;;;;;3.00;0.98;;;11.60;99.90;;;;;;5037503;28;20193;-79
2022/11/16 07:59:27;;;;;;;2.95;1.23;;;11.60;99.90;;;;;;5043961;28;20202;-78
2022/11/16 08:01:54;;;;;;;2.60;0.90;;;11.70;99.90;;;;;;5043150;28;20185;-79
2022/11/16 08:04:22;;;;;;;6.45;2.65;;;11.70;99.90;;;;;;5053272;28;20257;-79
2022/11/16 08:06:50;;;;;;;3.55;1.63;;;11.70;99.90;;;;;;5054716;28;20197;-79
2022/11/16 08:09:16;;;;;;;2.15;1.20;;;11.70;99.90;;;;;;5054006;28;20180;-79
2022/11/16 08:11:45;;;;;;;1.67;0.95;;;11.70;99.90;;;;;;5046232;28;20166;-77
2022/11/16 08:14:11;;;;;;;3.92;1.23;;;11.70;99.90;;;;;;5049137;28;20288;-79
2022/11/16 08:16:37;;;;;;;2.90;1.00;;;11.80;99.90;;;;;;5043983;28;20261;-79
2022/11/16 08:19:05;;;;;;;3.90;1.25;;;11.70;99.90;;;;;;5046204;28;20228;-78
2022/11/16 08:21:33;;;;;;;3.22;1.25;;;11.80;99.90;;;;;;5049220;28;20166;-80
2022/11/16 08:24:00;;;;;;;4.32;1.13;;;11.90;99.90;;;;;;5052374;28;20174;-81
2022/11/16 08:26:28;;;;;;;3.38;1.15;;;11.90;99.90;;;;;;5037427;28;20210;-79
2022/11/16 08:28:58;;;;;;;4.20;1.52;;;11.90;99.90;;;;;;5054171;28;20185;-79
2022/11/16 08:31:30;;;;;;;3.65;1.30;;;11.90;99.90;;;;;;5038012;28;20208;-80
2022/11/16 08:34:01;;;;;;;3.65;1.40;;;12.00;99.90;;;;;;5047662;28;20312;-79
2022/11/16 08:36:27;;;;;;;3.28;1.30;;;12.00;99.90;;;;;;5055704;28;20199;-79
2022/11/16 08:38:53;;;;;;;2.75;1.10;;;12.10;99.90;;;;;;5052188;28;20189;-79
2022/11/16 08:41:22;;;;;;;3.20;1.20;;;12.30;99.90;;;;;;5050731;28;20212;-79
2022/11/16 08:43:52;;;;;;;5.75;1.25;;;12.50;99.90;;;;;;5044339;28;20177;-78
2022/11/16 08:46:22;;;;;;;3.33;1.25;;;12.60;99.90;;;;;;5038192;28;20186;-80
2022/11/16 08:48:47;;;;;;;2.15;1.08;;;12.70;99.90;;;;;;5055601;28;20197;-78
2022/11/16 08:51:16;;;;;;;3.08;0.90;;;12.80;99.90;;;;;;5046570;28;20181;-79
2022/11/16 08:53:42;;;;;;;2.13;0.93;;;12.80;99.90;;;;;;5047393;28;20186;-79
2022/11/16 08:56:13;;;;;;;2.00;1.00;;;13.00;99.90;;;;;;5055751;28;20173;-79
2022/11/16 08:58:45;;;;;;;2.22;0.98;;;13.20;99.90;;;;;;5048959;28;20185;-74
2022/11/16 09:01:17;;;;;;;2.70;1.08;;;13.50;99.90;;;;;;5059083;28;20183;-78
2022/11/16 09:03:48;;;;;;;3.15;1.00;;;13.80;99.90;;;;;;5052414;28;20170;-78
2022/11/16 09:06:14;;;;;;;2.95;1.00;;;14.20;99.90;;;;;;5036201;28;20182;-78
2022/11/16 09:08:42;;;;;;;6.28;2.97;;;14.60;99.90;;;;;;5046276;28;20170;-76
2022/11/16 09:11:14;;;;;;;3.58;1.73;;;15.10;99.90;;;;;;5046409;28;20176;-74
2022/11/16 09:13:45;;;;;;;4.88;1.40;;;15.60;99.90;;;;;;5058985;28;20202;-77
2022/11/16 09:16:15;;;;;;;3.58;1.33;;;16.00;99.90;;;;;;5042476;28;20205;-79
2022/11/16 09:18:45;;;;;;;3.47;1.20;;;16.30;99.90;;;;;;5036042;28;20205;-76
2022/11/16 09:21:15;;;;;;;3.42;1.10;;;16.50;99.90;;;;;;5045613;28;20267;-80
2022/11/16 09:23:40;;;;;;;4.30;1.40;;;16.60;99.90;;;;;;5045043;28;20198;-79
2022/11/16 09:26:06;;;;;;;3.63;1.02;;;16.60;99.90;;;;;;5037441;28;20234;-78
2022/11/16 09:28:32;;;;;;;4.60;1.08;;;16.50;99.90;;;;;;5049168;28;20178;-79
2022/11/16 09:31:01;;;;;;;2.60;1.02;;;16.50;99.90;;;;;;5052403;28;20197;-79
2022/11/16 09:33:30;;;;;;;4.22;1.00;;;16.50;99.90;;;;;;5043089;28;20260;-78
2022/11/16 09:36:05;;;;;;;1.95;0.75;;;16.50;99.90;;;;;;5043782;28;20173;-76
2022/11/16 09:38:34;;;;;;;3.10;1.00;;;16.50;99.90;;;;;;5055154;28;20197;-79
2022/11/16 09:41:13;;;;;;;2.40;0.85;;;16.40;99.90;;;;;;5045972;28;20186;-80
2022/11/16 09:43:42;;;;;;;1.77;0.90;;;16.40;99.90;;;;;;5045090;28;20264;-78
2022/11/16 09:46:25;;;;;;;2.65;0.93;;;16.30;99.90;;;;;;5035443;28;20181;-77
2022/11/16 09:48:52;;;;;;;3.88;1.00;;;16.40;99.90;;;;;;5062667;28;20186;-77
2022/11/16 09:51:25;;;;;;;1.92;0.85;;;16.30;99.90;;;;;;5035683;28;20178;-77
2022/11/16 09:54:00;;;;;;;3.72;1.00;;;16.30;99.90;;;;;;5041212;28;20277;-77
2022/11/16 09:56:30;;;;;;;2.30;0.80;;;16.30;99.90;;;;;;5038431;28;20268;-77
2022/11/16 09:59:18;;;;;;;4.75;1.17;;;16.20;99.90;;;;;;5045580;28;20236;-78
2022/11/16 10:01:56;;;;;;;4.82;1.13;;;16.20;99.90;;;;;;5043061;28;20268;-77
2022/11/16 10:04:42;;;;;;;2.90;0.88;;;16.20;99.90;;;;;;5046107;28;20173;-77
2022/11/16 10:07:16;;;;;;;3.00;0.95;;;16.20;99.90;;;;;;5053907;28;20197;-76
2022/11/16 10:09:46;;;;;;;3.67;1.15;;;16.20;99.90;;;;;;5048117;28;20176;-76
2022/11/16 10:12:27;;;;;;;5.20;1.40;;;16.20;99.90;;;;;;5052212;28;20192;-78
2022/11/16 10:15:06;;;;;;;3.33;1.05;;;16.30;99.90;;;;;;5046890;28;20255;-78
2022/11/16 10:17:54;;;;;;;1.83;0.80;;;16.30;99.90;;;;;;5053290;28;20181;-79
2022/11/16 10:20:50;;;;;;;3.67;1.10;;;16.30;99.90;;;;;;5045110;28;20194;-78
2022/11/16 10:23:36;;;;;;;3.20;0.90;;;16.30;99.90;;;;;;5041764;28;20173;-80
2022/11/16 10:26:13;;;;;;;2.25;0.90;;;16.30;99.90;;;;;;5048970;28;20268;-78
2022/11/16 10:28:50;;;;;;;3.55;0.95;;;16.30;99.90;;;;;;5053793;28;20211;-77
2022/11/16 10:31:39;;;;;;;1.98;0.98;;;16.40;99.90;;;;;;5036265;28;20192;-78
2022/11/16 10:34:10;;;;;;;3.50;0.98;;;16.50;99.90;;;;;;5035250;28;20193;-79
2022/11/16 10:36:40;;;;;;;2.47;1.02;;;16.40;99.90;;;;;;5042686;28;20205;-77
2022/11/16 10:39:13;;;;;;;3.20;1.20;;;16.40;99.90;;;;;;5034417;28;20197;-76
2022/11/16 10:41:40;;;;;;;3.13;0.90;;;16.30;99.90;;;;;;5054268;28;20197;-77
2022/11/16 10:44:33;;;;;;;3.10;1.00;;;16.30;99.90;;;;;;5053079;28;20184;-77
2022/11/16 10:47:04;;;;;;;4.95;1.15;;;16.40;99.90;;;;;;5067066;28;20185;-79
2022/11/16 10:49:32;;;;;;;3.30;1.23;;;16.50;99.90;;;;;;5050418;28;20201;-79
2022/11/16 10:51:58;;;;;;;3.13;1.15;;;16.50;99.90;;;;;;5038204;28;20178;-80
2022/11/16 10:54:24;;;;;;;3.85;1.30;;;16.60;99.90;;;;;;5047218;28;20301;-79
2022/11/16 10:57:02;;;;;;;2.40;0.98;;;16.60;99.90;;;;;;5051766;28;20193;-81
2022/11/16 10:59:44;;;;;;;5.45;1.42;;;16.60;99.90;;;;;;5035048;28;20170;-81
2022/11/16 11:02:30;;;;;;;9.55;1.30;;;16.60;99.90;;;;;;5066722;28;20197;-80
2022/11/16 11:05:22;;;;;;;3.90;1.13;;;16.50;99.90;;;;;;5047373;28;20194;-78
2022/11/16 11:07:58;;;;;;;3.03;1.00;;;16.50;99.90;;;;;;5034628;28;20181;-80
2022/11/16 11:10:50;;;;;;;4.95;1.02;;;16.50;99.90;;;;;;5054614;28;20236;-79
2022/11/16 11:13:25;;;;;;;2.58;0.85;;;16.50;99.90;;;;;;5038710;28;20213;-79
2022/11/16 11:15:50;;;;;;;2.35;0.98;;;16.50;99.90;;;;;;5047718;28;20337;-78
2022/11/16 11:18:22;;;;;;;3.42;1.02;;;16.60;99.90;;;;;;5051659;28;20197;-79
2022/11/16 11:20:59;;;;;;;3.20;1.15;;;16.70;99.90;;;;;;5056869;28;20200;-81
2022/11/16 11:23:26;;;;;;;2.95;1.10;;;16.70;99.90;;;;;;5055075;28;20204;-81
2022/11/16 11:25:57;;;;;;;5.93;1.30;;;16.80;99.90;;;;;;5047519;28;20186;-81
2022/11/16 11:28:30;;;;;;;4.57;0.93;;;16.90;99.90;;;;;;5057638;28;20201;-79
2022/11/16 11:31:10;;;;;;;3.55;1.05;;;16.90;99.90;;;;;;5042789;28;20193;-80
2022/11/16 11:33:40;;;;;;;2.88;1.02;;;16.80;99.90;;;;;;5048785;28;20197;-82
2022/11/16 11:36:23;;;;;;;3.22;1.08;;;16.70;99.90;;;;;;5056382;28;20177;-80
2022/11/16 11:38:57;;;;;;;3.05;1.20;;;16.60;99.90;;;;;;5049255;28;20198;-80
2022/11/16 11:41:23;;;;;;;2.30;0.80;;;16.60;99.90;;;;;;5054119;28;20173;-81
2022/11/16 11:44:17;;;;;;;2.33;0.80;;;16.60;99.90;;;;;;5041171;28;20232;-80
2022/11/16 11:46:56;;;;;;;3.35;0.70;;;16.60;99.90;;;;;;5056538;28;20197;-82
2022/11/16 11:49:33;;;;;;;3.15;0.95;;;16.60;99.90;;;;;;5043916;28;20177;-78
2022/11/16 11:52:16;;;;;;;2.92;0.82;;;16.60;99.90;;;;;;5038379;28;20265;-77
2022/11/16 11:54:46;;;;;;;2.45;0.90;;;16.70;99.90;;;;;;5047732;28;20304;-80
2022/11/16 11:57:19;;;;;;;2.15;0.80;;;16.70;99.90;;;;;;5048968;28;20176;-81
2022/11/16 11:59:45;;;;;;;1.92;1.02;;;16.60;99.90;;;;;;5051996;28;20277;-78
2022/11/16 12:02:25;;;;;;;3.85;1.35;;;16.60;99.90;;;;;;5053947;28;20182;-80
2022/11/16 12:05:40;;;;;;;1.85;0.80;;;16.40;99.90;;;;;;5048200;28;20182;-82
2022/11/16 12:08:43;;;;;;;4.35;0.90;;;16.30;99.90;;;;;;5036998;28;20206;-80
2022/11/16 12:12:23;;;;;;;2.80;0.98;;;16.30;99.90;;;;;;5054679;28;20277;-79
2022/11/16 12:15:00;;;;;;;1.98;0.95;;;16.50;99.90;;;;;;4989839;28;20211;-81
2022/11/16 12:17:48;;;;;;;1.33;0.90;;;16.80;99.90;;;;;;5001145;28;20214;-79
2022/11/16 12:20:25;;;;;;;1.58;0.80;;;16.90;99.90;;;;;;5032953;28;20182;-81
2022/11/16 12:23:24;;;;;;;3.70;1.33;;;16.90;99.90;;;;;;5036112;28;20185;-78
2022/11/16 12:25:57;;;;;;;2.13;0.60;;;16.80;99.90;;;;;;5043234;28;20316;-79
2022/11/16 12:28:55;;;;;;;1.55;0.70;;;16.70;99.90;;;;;;5041251;28;20202;-80
2022/11/16 12:31:48;;;;;;;2.30;1.08;;;16.60;99.90;;;;;;5045796;28;20178;-79
2022/11/16 12:34:17;;;;;;;3.65;1.20;;;16.50;99.90;;;;;;5052078;28;20260;-81
2022/11/16 12:37:02;;;;;;;2.40;0.82;;;16.50;99.90;;;;;;5038190;28;20217;-79
2022/11/16 12:39:54;;;;;;;4.13;0.95;;;16.50;99.90;;;;;;5046306;28;20188;-78
2022/11/16 12:42:31;;;;;;;1.90;0.70;;;16.60;99.90;;;;;;5046314;28;20197;-79
2022/11/16 12:45:17;;;;;;;1.98;0.80;;;16.80;99.90;;;;;;5056941;28;20176;-80
2022/11/16 12:48:07;;;;;;;1.67;0.70;;;16.80;99.90;;;;;;5059496;28;20259;-79
2022/11/16 12:50:36;;;;;;;1.60;0.80;;;16.70;99.90;;;;;;5047184;28;20219;-79
2022/11/16 12:53:23;;;;;;;2.25;0.93;;;16.80;99.90;;;;;;5054486;28;20238;-79
2022/11/16 12:56:08;;;;;;;3.78;0.98;;;16.80;99.90;;;;;;5038803;28;20177;-78
2022/11/16 12:58:33;;;;;;;3.03;1.13;;;17.00;99.90;;;;;;5039056;28;20180;-78
2022/11/16 13:01:23;;;;;;;1.38;0.80;;;17.20;99.90;;;;;;5046008;28;20182;-81
2022/11/16 13:03:57;;;;;;;2.85;0.98;;;17.30;99.90;;;;;;5055974;28;20233;-79
2022/11/16 13:06:41;;;;;;;1.20;0.65;;;17.30;99.90;;;;;;5042305;28;20186;-77
2022/11/16 13:09:22;;;;;;;2.40;0.80;;;17.20;99.90;;;;;;5041410;28;20181;-79
2022/11/16 13:11:57;;;;;;;1.58;0.90;;;17.20;99.90;;;;;;5055129;28;20229;-77
2022/11/16 13:14:32;;;;;;;2.13;0.80;;;17.10;99.90;;;;;;5041133;28;20205;-79
2022/11/16 13:17:01;;;;;;;3.17;0.82;;;17.00;99.90;;;;;;5051619;28;20177;-79
2022/11/16 13:19:27;;;;;;;2.83;0.80;;;16.90;99.90;;;;;;5042155;28;20174;-78
2022/11/16 13:22:06;;;;;;;2.47;0.70;;;16.80;99.90;;;;;;5040135;28;20174;-79
2022/11/16 13:25:06;;;;;;;2.25;0.90;;;16.70;99.90;;;;;;5057220;28;20260;-79
2022/11/16 13:27:56;;;;;;;1.95;0.65;;;16.60;99.90;;;;;;5032475;28;20190;-79
2022/11/16 13:30:29;;;;;;;2.60;0.95;;;16.50;99.90;;;;;;5040983;28;20174;-77
2022/11/16 13:33:03;;;;;;;1.95;0.82;;;16.50;99.90;;;;;;5055056;28;20205;-80
2022/11/16 13:35:29;;;;;;;2.33;0.77;;;16.40;99.90;;;;;;5052001;28;20231;-76
2022/11/16 13:37:55;;;;;;;4.65;0.90;;;16.30;99.90;;;;;;5053997;28;20185;-80
2022/11/16 13:40:34;;;;;;;1.85;0.73;;;16.30;99.90;;;;;;5054847;28;20197;-78
2022/11/16 13:43:03;;;;;;;3.40;0.82;;;16.20;99.90;;;;;;5056971;28;20253;-78
2022/11/16 13:45:37;;;;;;;3.40;0.70;;;16.20;99.90;;;;;;5051926;28;20182;-78
2022/11/16 13:48:19;;;;;;;2.53;0.70;;;16.10;99.90;;;;;;5044070;28;20191;-79
2022/11/16 13:50:58;;;;;;;1.98;0.70;;;16.00;99.90;;;;;;5040560;28;20189;-78
2022/11/16 13:53:35;;;;;;;2.38;0.80;;;16.00;99.90;;;;;;5041123;28;20201;-78
2022/11/16 13:56:07;;;;;;;2.13;0.98;;;15.90;99.90;;;;;;5051037;28;20216;-79
2022/11/16 13:58:42;;;;;;;1.15;0.80;;;15.80;99.90;;;;;;5046608;28;20177;-78